Time;durP1;ratioP1;P1;durP2;ratioP2;P2;SDS_P1;SDS_P2;PMS_P1;PMS_P2;Temp;Humidity;BMP_temperature;BMP_pressure;BME280_temperature;BME280_humidity;BME280_pressure;Samples;Min_cycle;Max_cycle;Signal;HPM_P1;HPM_P2
2021/04/17 00:02:52;;;;;;;9.70;2.58;;;4.30;64.30;;;;;;5891019;40;20054;-70
2021/04/17 00:06:56;;;;;;;6.60;2.30;;;4.20;64.50;;;;;;5896719;40;20116;-70
2021/04/17 00:11:01;;;;;;;8.50;2.38;;;4.20;64.50;;;;;;5887797;40;20049;-70
2021/04/17 00:15:05;;;;;;;6.28;2.13;;;4.10;64.60;;;;;;5893793;40;20038;-69
2021/04/17 00:19:09;;;;;;;6.53;2.83;;;4.10;64.60;;;;;;5892354;40;20500;-70
2021/04/17 00:23:13;;;;;;;6.53;2.47;;;4.00;64.60;;;;;;5893759;40;20044;-70
2021/04/17 00:27:18;;;;;;;8.77;3.10;;;4.00;64.60;;;;;;5896859;40;20072;-70
2021/04/17 00:31:24;;;;;;;7.20;2.40;;;4.00;64.60;;;;;;5890829;40;20065;-69
2021/04/17 00:35:28;;;;;;;8.70;2.75;;;4.00;64.60;;;;;;5899044;40;20082;-69
2021/04/17 00:39:32;;;;;;;9.82;2.85;;;3.90;64.40;;;;;;5889026;40;20033;-70
2021/04/17 00:43:39;;;;;;;5.82;2.70;;;2.70;63.90;;;;;;5902794;40;20045;-70
2021/04/17 00:47:43;;;;;;;6.30;2.47;;;3.90;64.80;;;;;;5891757;40;20231;-69
2021/04/17 00:51:47;;;;;;;12.63;3.22;;;3.90;64.70;;;;;;5903719;40;20534;-71
2021/04/17 00:55:52;;;;;;;6.40;2.50;;;3.80;64.80;;;;;;5903456;40;20413;-70
2021/04/17 00:59:59;;;;;;;6.25;2.72;;;3.80;64.80;;;;;;5894698;40;20060;-70
2021/04/17 01:04:20;;;;;;;6.75;2.63;;;3.80;64.80;;;;;;5895135;40;20042;-70
2021/04/17 01:08:44;;;;;;;9.60;3.15;;;3.80;65.10;;;;;;5893339;40;20444;-70
2021/04/17 01:12:55;;;;;;;7.28;2.83;;;3.70;64.90;;;;;;5901804;40;20089;-70
2021/04/17 01:17:00;;;;;;;9.07;3.20;;;3.70;64.80;;;;;;5892927;40;20046;-70
2021/04/17 01:21:10;;;;;;;9.95;2.45;;;3.70;65.10;;;;;;5901771;40;20069;-70
2021/04/17 01:25:20;;;;;;;8.18;2.65;;;3.60;64.90;;;;;;5897436;40;20080;-69
2021/04/17 01:29:28;;;;;;;7.38;2.58;;;3.60;66.30;;;;;;5889362;40;20490;-70
2021/04/17 01:33:36;;;;;;;6.13;2.15;;;3.50;65.40;;;;;;5895206;40;20053;-70
2021/04/17 01:38:25;;;;;;;7.38;2.58;;;3.60;65.80;;;;;;5895132;40;20251;-70
2021/04/17 01:42:30;;;;;;;6.78;2.60;;;3.60;65.10;;;;;;5889491;40;20211;-70
2021/04/17 01:46:40;;;;;;;8.27;3.08;;;3.60;66.10;;;;;;5900834;40;20397;-70
2021/04/17 01:50:46;;;;;;;7.75;2.75;;;3.60;65.10;;;;;;5896133;40;20080;-70
2021/04/17 01:54:55;;;;;;;8.93;2.78;;;3.60;65.70;;;;;;5893207;40;20093;-70
2021/04/17 01:59:01;;;;;;;7.63;2.33;;;3.60;65.90;;;;;;5892296;40;20503;-70
2021/04/17 02:03:06;;;;;;;7.43;2.92;;;3.60;66.00;;;;;;5892000;40;20069;-71
2021/04/17 02:07:10;;;;;;;6.70;2.47;;;3.50;65.20;;;;;;5895041;40;20046;-70
2021/04/17 02:11:16;;;;;;;7.93;2.50;;;3.50;66.20;;;;;;5902587;40;20057;-69
2021/04/17 02:15:26;;;;;;;8.25;2.50;;;3.50;65.50;;;;;;5892173;40;20458;-68
2021/04/17 02:19:50;;;;;;;10.30;3.10;;;3.50;65.50;;;;;;5891005;40;20560;-69
2021/04/17 02:23:56;;;;;;;7.90;3.08;;;3.60;65.90;;;;;;5897124;40;20046;-69
2021/04/17 02:28:00;;;;;;;6.43;3.30;;;3.60;65.50;;;;;;5898936;40;20051;-71
2021/04/17 02:32:12;;;;;;;7.47;3.08;;;3.60;65.70;;;;;;5889842;40;20099;-70
2021/04/17 02:36:17;;;;;;;9.93;3.20;;;3.60;65.40;;;;;;5895141;40;20073;-70
2021/04/17 02:40:21;;;;;;;7.00;2.95;;;3.60;66.50;;;;;;5889997;40;20212;-70
2021/04/17 02:44:25;;;;;;;8.63;2.80;;;3.60;68.40;;;;;;5888132;40;20050;-70
2021/04/17 02:48:32;;;;;;;8.35;2.67;;;3.70;67.40;;;;;;5896926;40;20056;-70
2021/04/17 02:52:36;;;;;;;7.20;2.72;;;3.70;67.00;;;;;;5888741;40;20074;-70
2021/04/17 02:56:43;;;;;;;6.47;2.90;;;3.70;66.90;;;;;;5892732;40;21197;-70
2021/04/17 03:00:47;;;;;;;7.25;3.10;;;3.70;67.00;;;;;;5903178;40;20112;-70
2021/04/17 03:04:51;;;;;;;6.93;2.97;;;3.80;69.10;;;;;;5887260;40;20052;-69
2021/04/17 03:08:58;;;;;;;8.55;2.85;;;3.80;67.90;;;;;;5894452;40;20066;-70
2021/04/17 03:13:04;;;;;;;9.02;2.85;;;3.80;67.10;;;;;;5904154;40;20422;-70
2021/04/17 03:17:09;;;;;;;7.05;2.78;;;3.80;67.40;;;;;;5894466;40;20057;-70
2021/04/17 03:21:13;;;;;;;8.88;2.83;;;3.80;69.00;;;;;;5885818;40;20140;-70
2021/04/17 03:25:18;;;;;;;6.88;2.85;;;3.80;68.00;;;;;;5905596;40;20064;-70
2021/04/17 03:29:23;;;;;;;7.35;2.78;;;3.80;67.70;;;;;;5892616;40;20052;-70
2021/04/17 03:33:27;;;;;;;6.97;3.00;;;4.70;68.70;;;;;;5892747;40;20499;-70
2021/04/17 03:37:33;;;;;;;7.38;2.78;;;3.80;69.30;;;;;;5897548;40;20463;-70
2021/04/17 03:41:40;;;;;;;8.02;2.50;;;3.80;68.40;;;;;;5894012;40;20117;-69
2021/04/17 03:45:44;;;;;;;7.82;3.10;;;3.80;71.00;;;;;;5892595;40;20041;-69
2021/04/17 03:49:48;;;;;;;9.18;2.92;;;3.70;72.70;;;;;;5896388;40;20073;-69
2021/04/17 03:53:53;;;;;;;8.20;2.65;;;3.70;73.80;;;;;;5891368;40;20042;-69
2021/04/17 03:57:59;;;;;;;6.95;2.92;;;3.70;74.30;;;;;;5890258;40;20076;-69
2021/04/17 04:02:06;;;;;;;8.05;2.85;;;3.60;74.30;;;;;;5892672;40;20057;-69
2021/04/17 04:06:10;;;;;;;9.40;2.67;;;3.60;74.90;;;;;;5891690;40;20057;-69
2021/04/17 04:10:15;;;;;;;8.32;3.40;;;3.60;74.20;;;;;;5892163;40;20436;-70
2021/04/17 04:14:19;;;;;;;9.55;3.10;;;3.70;75.10;;;;;;5892347;40;20045;-69
2021/04/17 04:18:23;;;;;;;6.90;3.05;;;3.70;72.70;;;;;;5884031;40;20638;-70
2021/04/17 04:22:28;;;;;;;6.75;2.22;;;3.70;73.40;;;;;;5901272;40;20393;-69
2021/04/17 04:26:34;;;;;;;6.65;2.88;;;2.20;73.20;;;;;;5888579;40;20050;-69
2021/04/17 04:30:39;;;;;;;5.45;2.95;;;3.70;73.90;;;;;;5891156;40;20238;-69
2021/04/17 04:34:43;;;;;;;9.23;2.83;;;3.70;75.20;;;;;;5896911;40;20132;-69
2021/04/17 04:38:49;;;;;;;6.25;2.75;;;3.70;74.20;;;;;;5892269;40;20484;-69
2021/04/17 04:42:54;;;;;;;8.35;3.53;;;3.80;73.70;;;;;;5897203;40;20057;-70
2021/04/17 04:46:58;;;;;;;7.43;2.70;;;3.80;72.00;;;;;;5884193;40;20057;-69
2021/04/17 04:51:02;;;;;;;8.95;2.50;;;3.80;72.30;;;;;;5891547;40;20107;-70
2021/04/17 04:55:09;;;;;;;6.72;2.80;;;3.80;71.70;;;;;;5892943;40;20505;-69
2021/04/17 04:59:13;;;;;;;7.22;3.08;;;3.80;73.70;;;;;;5891154;40;20066;-69
2021/04/17 05:03:18;;;;;;;6.57;3.08;;;3.90;72.50;;;;;;5880347;40;20089;-70
2021/04/17 05:07:22;;;;;;;6.28;2.67;;;3.90;72.20;;;;;;5883929;40;20056;-70
2021/04/17 05:11:28;;;;;;;8.68;3.03;;;4.00;72.00;;;;;;5894702;40;20113;-70
2021/04/17 05:15:35;;;;;;;6.53;2.90;;;4.10;71.70;;;;;;5900380;40;20091;-69
2021/04/17 05:19:43;;;;;;;7.63;3.05;;;4.20;71.80;;;;;;5889079;40;20044;-69
2021/04/17 05:23:48;;;;;;;9.52;2.78;;;2.50;71.70;;;;;;5893746;40;20065;-69
2021/04/17 05:27:58;;;;;;;5.55;2.45;;;4.40;72.10;;;;;;5893364;40;20053;-69
2021/04/17 05:32:03;;;;;;;7.60;3.40;;;4.50;74.00;;;;;;5893221;40;20658;-69
2021/04/17 05:36:07;;;;;;;8.40;2.42;;;4.50;75.50;;;;;;5883996;40;20062;-67
2021/04/17 05:40:16;;;;;;;7.30;2.83;;;4.70;75.70;;;;;;5888996;40;20054;-67
2021/04/17 05:44:21;;;;;;;9.40;2.88;;;4.80;75.00;;;;;;5881551;40;20053;-71
2021/04/17 05:48:26;;;;;;;5.65;2.33;;;5.00;74.40;;;;;;5901192;40;20042;-72
2021/04/17 05:52:30;;;;;;;5.95;2.22;;;5.30;75.40;;;;;;5903688;40;20162;-72
2021/04/17 05:56:40;;;;;;;4.95;2.20;;;5.50;75.90;;;;;;5890111;40;20453;-72
2021/04/17 06:00:46;;;;;;;7.90;2.53;;;5.60;75.00;;;;;;5900189;40;20057;-72
2021/04/17 06:04:50;;;;;;;4.88;2.30;;;5.80;76.60;;;;;;5896909;40;20044;-72
2021/04/17 06:08:54;;;;;;;5.47;2.40;;;5.80;76.50;;;;;;5897155;40;20314;-72
2021/04/17 06:13:01;;;;;;;9.75;2.38;;;5.80;77.50;;;;;;5895220;40;20144;-72
2021/04/17 06:17:06;;;;;;;9.73;2.67;;;5.90;77.30;;;;;;5896889;40;20049;-72
2021/04/17 06:21:11;;;;;;;5.82;2.45;;;5.90;78.10;;;;;;5896641;40;20042;-72
2021/04/17 06:25:15;;;;;;;5.90;2.97;;;6.00;77.10;;;;;;5898815;40;20042;-72
2021/04/17 06:29:26;;;;;;;11.52;2.90;;;6.10;75.90;;;;;;5895483;40;20037;-72
2021/04/17 06:33:33;;;;;;;8.15;2.58;;;6.20;76.20;;;;;;5894714;40;20477;-72
2021/04/17 06:37:37;;;;;;;7.20;2.75;;;6.30;75.60;;;;;;5895214;40;20094;-72
2021/04/17 06:41:46;;;;;;;5.80;2.72;;;6.30;76.50;;;;;;5898349;40;20057;-73
2021/04/17 06:45:57;;;;;;;7.88;2.70;;;6.40;76.70;;;;;;5897595;40;20053;-72
2021/04/17 06:50:02;;;;;;;6.22;2.88;;;6.40;76.40;;;;;;5898379;40;20049;-72
2021/04/17 06:54:09;;;;;;;6.75;2.70;;;6.40;77.10;;;;;;5876783;40;20565;-72
2021/04/17 06:58:13;;;;;;;6.18;2.08;;;6.50;76.00;;;;;;5905436;40;20086;-72
2021/04/17 07:02:25;;;;;;;13.65;2.90;;;6.50;76.90;;;;;;5892536;40;20058;-72
2021/04/17 07:06:38;;;;;;;3.92;2.10;;;6.70;77.70;;;;;;5893138;40;20044;-72
2021/04/17 07:10:43;;;;;;;4.85;2.20;;;6.80;77.30;;;;;;5904199;40;20555;-72
2021/04/17 07:14:52;;;;;;;5.15;2.08;;;6.90;77.20;;;;;;5896444;40;20065;-72
2021/04/17 07:18:56;;;;;;;5.22;1.90;;;7.00;76.50;;;;;;5897194;40;20136;-72
2021/04/17 07:23:00;;;;;;;7.35;1.95;;;7.10;76.30;;;;;;5899697;40;20076;-72
2021/04/17 07:27:05;;;;;;;5.35;2.22;;;7.20;76.30;;;;;;5895078;40;20061;-73
2021/04/17 07:31:15;;;;;;;8.15;2.25;;;7.30;76.00;;;;;;5907141;40;20057;-73
2021/04/17 07:35:25;;;;;;;4.85;2.03;;;7.50;76.20;;;;;;5887503;40;20057;-68
2021/04/17 07:39:40;;;;;;;5.70;2.15;;;7.50;76.40;;;;;;5886154;40;20065;-68
2021/04/17 07:43:53;;;;;;;4.47;1.95;;;7.80;76.20;;;;;;5893931;40;20056;-68
2021/04/17 07:48:17;;;;;;;8.60;2.10;;;8.10;75.30;;;;;;5895368;40;20062;-67
2021/04/17 07:52:22;;;;;;;3.55;1.83;;;8.30;75.10;;;;;;5889259;40;20057;-68
2021/04/17 07:56:32;;;;;;;6.22;2.03;;;8.50;75.10;;;;;;5888374;40;20229;-69
2021/04/17 08:00:36;;;;;;;2.72;1.17;;;8.60;75.60;;;;;;5898786;40;20049;-68
2021/04/17 08:04:47;;;;;;;5.50;1.50;;;8.70;73.60;;;;;;5893276;40;20100;-68
2021/04/17 08:08:52;;;;;;;4.30;1.33;;;8.80;72.90;;;;;;5886666;40;20421;-68
2021/04/17 08:12:59;;;;;;;8.85;1.10;;;8.80;72.50;;;;;;5888654;40;20311;-68
2021/04/17 08:17:03;;;;;;;5.68;1.20;;;8.90;72.00;;;;;;5897647;40;20076;-67
2021/04/17 08:21:11;;;;;;;4.25;1.08;;;9.00;72.00;;;;;;5888091;40;20417;-68
2021/04/17 08:25:19;;;;;;;4.25;1.50;;;8.00;71.20;;;;;;5882586;40;20057;-68
2021/04/17 08:29:49;;;;;;;5.68;1.40;;;9.10;71.50;;;;;;5890174;40;20058;-68
2021/04/17 08:34:15;;;;;;;5.18;1.60;;;9.20;71.80;;;;;;5891882;40;20056;-68
2021/04/17 08:38:19;;;;;;;5.43;1.38;;;10.80;72.60;;;;;;5883957;40;20048;-68
2021/04/17 08:42:42;;;;;;;6.28;1.27;;;9.40;71.50;;;;;;5898299;40;20042;-67
2021/04/17 08:46:46;;;;;;;6.70;1.50;;;9.50;71.80;;;;;;5899568;40;20397;-68
2021/04/17 08:50:51;;;;;;;5.30;1.55;;;9.60;71.40;;;;;;5884840;40;20526;-68
2021/04/17 08:55:06;;;;;;;5.43;1.40;;;9.60;71.30;;;;;;5889387;40;20050;-68
2021/04/17 08:59:11;;;;;;;4.20;1.45;;;9.60;71.70;;;;;;5898882;40;20438;-68
2021/04/17 09:03:44;;;;;;;4.35;1.55;;;9.60;70.70;;;;;;5897817;40;20057;-68
2021/04/17 09:08:12;;;;;;;5.97;1.52;;;9.60;70.00;;;;;;5884113;40;20069;-68
2021/04/17 09:12:19;;;;;;;3.85;1.75;;;9.50;70.50;;;;;;5878450;40;20050;-69
2021/04/17 09:16:39;;;;;;;5.18;0.90;;;9.60;71.30;;;;;;5889297;40;20070;-68
2021/04/17 09:20:46;;;;;;;4.80;1.45;;;9.90;69.70;;;;;;5881495;40;20324;-68
2021/04/17 09:25:00;;;;;;;3.65;0.90;;;10.00;69.80;;;;;;5888566;40;20093;-68
2021/04/17 09:29:20;;;;;;;5.43;1.50;;;10.00;70.20;;;;;;5897870;40;20208;-68
2021/04/17 09:33:24;;;;;;;5.40;1.52;;;10.00;70.10;;;;;;5890256;40;20054;-68
2021/04/17 09:37:31;;;;;;;4.93;1.40;;;9.90;70.50;;;;;;5890523;40;20405;-69
2021/04/17 09:41:50;;;;;;;3.72;1.40;;;9.90;70.30;;;;;;5881173;40;20066;-68
2021/04/17 09:45:58;;;;;;;4.22;1.40;;;9.90;71.20;;;;;;5882573;40;20116;-68
2021/04/17 09:50:20;;;;;;;4.72;1.52;;;9.90;70.90;;;;;;5890438;40;20322;-68
2021/04/17 09:54:29;;;;;;;7.53;2.25;;;9.80;71.40;;;;;;5897107;40;20480;-68
2021/04/17 09:58:36;;;;;;;3.85;1.67;;;9.80;71.50;;;;;;5892016;40;20298;-68
2021/04/17 10:02:48;;;;;;;3.83;1.35;;;9.80;72.10;;;;;;5882005;40;20144;-67
2021/04/17 10:06:59;;;;;;;3.97;1.30;;;9.80;71.90;;;;;;5897533;40;20166;-68
2021/04/17 10:11:04;;;;;;;6.93;1.60;;;9.80;72.90;;;;;;5898952;40;20061;-69
2021/04/17 10:15:26;;;;;;;4.70;1.90;;;9.70;73.40;;;;;;5888645;40;23584;-68
2021/04/17 10:19:31;;;;;;;4.83;1.33;;;9.60;73.30;;;;;;5887293;40;20073;-68
2021/04/17 10:23:36;;;;;;;3.88;1.30;;;9.60;71.70;;;;;;5887753;40;20066;-68
2021/04/17 10:27:40;;;;;;;4.80;1.58;;;9.90;71.60;;;;;;5889580;40;20123;-68
2021/04/17 10:31:49;;;;;;;5.38;1.10;;;10.20;71.40;;;;;;5889949;40;20057;-67
2021/04/17 10:35:58;;;;;;;6.13;1.60;;;10.70;69.30;;;;;;5887172;40;20343;-69
2021/04/17 10:40:15;;;;;;;5.45;0.88;;;11.00;67.30;;;;;;5881088;40;20065;-69
2021/04/17 10:44:19;;;;;;;5.85;1.52;;;11.20;65.40;;;;;;5882665;40;20085;-68
2021/04/17 10:48:26;;;;;;;8.05;1.30;;;11.30;66.80;;;;;;5889932;40;20062;-68
2021/04/17 10:52:33;;;;;;;7.05;1.20;;;11.60;65.90;;;;;;5888409;40;20081;-67
2021/04/17 10:56:53;;;;;;;7.65;1.50;;;11.70;66.00;;;;;;5888623;40;20397;-69
2021/04/17 11:01:05;;;;;;;4.15;1.05;;;11.90;65.40;;;;;;5893961;40;20070;-69
2021/04/17 11:05:15;;;;;;;5.47;1.30;;;12.10;63.60;;;;;;5883087;40;20065;-69
2021/04/17 11:09:22;;;;;;;3.15;1.10;;;12.20;63.80;;;;;;5889209;40;20139;-68
2021/04/17 11:13:34;;;;;;;2.05;0.90;;;12.30;62.30;;;;;;5894236;40;20053;-68
2021/04/17 11:17:38;;;;;;;3.45;1.40;;;12.40;61.50;;;;;;5898231;40;20081;-69
2021/04/17 11:21:43;;;;;;;5.68;1.50;;;12.40;61.60;;;;;;5890721;40;20053;-68
2021/04/17 11:25:47;;;;;;;3.28;1.05;;;12.40;61.80;;;;;;5898730;40;20341;-68
2021/04/17 11:29:51;;;;;;;3.00;0.82;;;12.50;61.50;;;;;;5893306;40;20159;-69
2021/04/17 11:33:59;;;;;;;7.10;1.50;;;12.60;61.60;;;;;;5885275;40;20336;-69
2021/04/17 11:38:03;;;;;;;3.80;1.27;;;12.70;60.70;;;;;;5902637;40;20127;-71
2021/04/17 11:42:16;;;;;;;4.93;1.77;;;12.80;60.60;;;;;;5890767;40;20057;-69
2021/04/17 11:46:22;;;;;;;3.97;0.77;;;12.90;60.00;;;;;;5886300;40;20640;-69
2021/04/17 11:50:27;;;;;;;3.42;1.30;;;13.00;59.60;;;;;;5882031;40;20445;-69
2021/04/17 11:54:31;;;;;;;7.55;1.13;;;13.00;59.30;;;;;;5897946;40;20038;-69
2021/04/17 11:58:37;;;;;;;4.50;1.60;;;13.00;60.10;;;;;;5895065;40;20057;-70
2021/04/17 12:02:41;;;;;;;2.42;0.82;;;13.10;60.30;;;;;;5886448;40;20368;-69
2021/04/17 12:06:50;;;;;;;3.00;0.90;;;13.20;59.40;;;;;;5892452;40;20049;-70
2021/04/17 12:10:54;;;;;;;5.15;1.10;;;13.20;60.10;;;;;;5893912;40;20333;-70
2021/04/17 12:14:58;;;;;;;3.17;1.33;;;13.10;60.00;;;;;;5893329;40;20106;-69
2021/04/17 12:19:03;;;;;;;6.28;1.60;;;13.10;59.70;;;;;;5886078;40;20053;-69
2021/04/17 12:23:07;;;;;;;6.15;1.58;;;13.00;59.10;;;;;;5891068;40;20080;-68
2021/04/17 12:27:14;;;;;;;5.47;1.33;;;13.10;59.00;;;;;;5893918;40;20045;-69
2021/04/17 12:31:18;;;;;;;3.38;1.50;;;13.20;59.70;;;;;;5886518;40;20058;-68
2021/04/17 12:35:22;;;;;;;3.05;1.55;;;13.20;59.60;;;;;;5899694;40;20053;-69
2021/04/17 12:39:26;;;;;;;6.82;1.70;;;13.20;59.30;;;;;;5889995;40;20052;-68
2021/04/17 12:43:32;;;;;;;7.05;1.40;;;13.40;59.50;;;;;;5886985;40;20059;-68
2021/04/17 12:47:41;;;;;;;3.83;0.85;;;13.40;59.40;;;;;;5878908;40;20105;-68
2021/04/17 12:51:48;;;;;;;5.97;1.58;;;13.40;58.40;;;;;;5879506;40;20060;-68
2021/04/17 12:55:58;;;;;;;3.85;1.67;;;13.30;58.80;;;;;;5885380;40;20050;-68
2021/04/17 13:00:04;;;;;;;6.00;1.40;;;13.20;59.00;;;;;;5890054;40;20097;-69
2021/04/17 13:04:08;;;;;;;6.57;1.67;;;13.30;58.30;;;;;;5889623;40;20103;-68
2021/04/17 13:08:12;;;;;;;6.07;1.67;;;13.20;58.20;;;;;;5890465;40;20049;-68
2021/04/17 13:12:19;;;;;;;4.63;1.33;;;13.30;58.20;;;;;;5895955;40;20060;-69
2021/04/17 13:16:25;;;;;;;3.85;1.38;;;13.30;58.50;;;;;;5891287;40;20046;-69
2021/04/17 13:20:29;;;;;;;3.67;1.55;;;13.20;57.90;;;;;;5885269;40;20065;-68
2021/04/17 13:24:36;;;;;;;6.75;1.27;;;13.20;58.10;;;;;;5889814;40;20162;-68
2021/04/17 13:28:42;;;;;;;3.97;1.40;;;13.30;59.10;;;;;;5890693;40;20346;-68
2021/04/17 13:32:51;;;;;;;4.60;1.50;;;13.30;59.40;;;;;;5892820;40;20059;-68
2021/04/17 13:36:58;;;;;;;3.38;1.40;;;13.50;58.40;;;;;;5893389;40;20053;-68
2021/04/17 13:41:03;;;;;;;4.40;1.50;;;13.50;58.80;;;;;;5889194;40;20453;-68
2021/04/17 13:45:10;;;;;;;7.07;3.17;;;13.40;58.40;;;;;;5889627;40;20311;-68
2021/04/17 13:49:17;;;;;;;7.35;2.30;;;13.40;58.20;;;;;;5897932;40;20341;-67
2021/04/17 13:53:23;;;;;;;5.10;1.50;;;13.40;57.90;;;;;;5891481;40;20054;-68
2021/04/17 13:57:28;;;;;;;8.85;1.88;;;13.40;58.40;;;;;;5898256;40;20037;-68
2021/04/17 14:01:32;;;;;;;6.72;2.00;;;13.30;58.10;;;;;;5899309;40;20677;-69
2021/04/17 14:05:45;;;;;;;4.32;1.40;;;13.30;58.50;;;;;;5879686;40;20049;-68
2021/04/17 14:09:51;;;;;;;4.72;1.70;;;13.30;57.50;;;;;;5896491;40;20375;-69
2021/04/17 14:13:56;;;;;;;7.72;1.95;;;13.30;58.80;;;;;;5889011;40;20097;-68
2021/04/17 14:18:00;;;;;;;4.47;1.45;;;13.30;59.30;;;;;;5889937;40;20060;-68
2021/04/17 14:22:04;;;;;;;6.88;2.03;;;13.40;59.10;;;;;;5894830;40;20046;-68
2021/04/17 14:26:11;;;;;;;7.22;2.13;;;13.20;59.00;;;;;;5885629;40;20057;-68
2021/04/17 14:30:19;;;;;;;5.32;1.90;;;13.20;59.80;;;;;;5889380;40;20437;-69
2021/04/17 14:34:24;;;;;;;8.25;3.72;;;13.30;60.00;;;;;;5887577;40;20072;-68
2021/04/17 14:38:28;;;;;;;7.47;2.72;;;13.40;59.60;;;;;;5878297;40;20100;-68
2021/04/17 14:42:36;;;;;;;4.22;1.60;;;13.40;59.20;;;;;;5895351;40;20045;-68
2021/04/17 14:46:45;;;;;;;5.15;2.70;;;13.30;59.50;;;;;;5885700;40;20053;-68
2021/04/17 14:50:49;;;;;;;9.27;4.35;;;13.30;59.80;;;;;;5886465;40;20056;-68
2021/04/17 14:54:58;;;;;;;11.30;2.67;;;13.20;60.30;;;;;;5886689;40;20117;-68
2021/04/17 14:59:03;;;;;;;8.88;4.30;;;13.30;60.40;;;;;;5891798;40;20460;-68
2021/04/17 15:03:07;;;;;;;22.35;13.40;;;13.20;60.80;;;;;;5887437;40;20069;-68
2021/04/17 15:07:12;;;;;;;10.93;3.25;;;13.20;61.00;;;;;;5890679;40;20150;-68
2021/04/17 15:11:19;;;;;;;5.97;2.03;;;13.20;61.00;;;;;;5886212;40;20454;-68
2021/04/17 15:15:27;;;;;;;13.43;5.47;;;13.20;61.00;;;;;;5885343;40;20089;-68
2021/04/17 15:19:32;;;;;;;5.03;2.17;;;13.20;61.00;;;;;;5882936;40;20087;-67
2021/04/17 15:23:39;;;;;;;10.68;2.95;;;13.20;61.20;;;;;;5875248;40;20072;-68
2021/04/17 15:27:48;;;;;;;5.50;1.92;;;13.20;61.30;;;;;;5890402;40;20063;-68
2021/04/17 15:31:50;;;;;;;5.90;2.10;;;13.20;61.40;;;;;;5888041;40;20056;-68
2021/04/17 15:35:55;;;;;;;4.55;1.90;;;13.00;61.70;;;;;;5883624;40;20079;-68
2021/04/17 15:40:06;;;;;;;5.75;1.90;;;12.90;62.00;;;;;;5893693;40;20093;-68
2021/04/17 15:44:11;;;;;;;4.55;2.03;;;12.80;62.50;;;;;;5888579;40;20057;-68
2021/04/17 15:48:15;;;;;;;8.15;2.15;;;12.70;62.90;;;;;;5898416;40;20054;-69
2021/04/17 15:52:20;;;;;;;6.00;3.10;;;12.70;63.00;;;;;;5889181;40;20616;-68
2021/04/17 15:56:21;;;;;;;5.43;2.22;;;12.70;63.10;;;;;;5885511;40;20066;-68
2021/04/17 16:01:25;;;;;;;5.65;2.40;;;12.50;63.20;;;;;;5889209;40;20045;-68
2021/04/17 16:18:10;;;;;;;8.55;2.95;;;12.40;63.60;;;;;;5889187;40;20046;-67
2021/04/17 16:22:15;;;;;;;6.32;2.42;;;12.40;63.70;;;;;;5887842;40;20060;-68
2021/04/17 16:26:21;;;;;;;4.85;2.03;;;12.40;63.80;;;;;;5874847;40;20054;-68
2021/04/17 16:30:27;;;;;;;10.90;2.80;;;12.40;64.00;;;;;;5890846;40;20050;-68
2021/04/17 16:34:33;;;;;;;8.15;2.92;;;12.30;64.30;;;;;;5891888;40;20401;-68
2021/04/17 16:38:38;;;;;;;8.55;2.80;;;12.10;64.70;;;;;;5896230;40;20062;-68
2021/04/17 16:42:47;;;;;;;6.75;2.70;;;12.00;64.90;;;;;;5890171;40;20053;-68
2021/04/17 16:46:52;;;;;;;9.55;2.75;;;12.00;65.20;;;;;;5898490;40;20053;-68
2021/04/17 16:50:57;;;;;;;6.85;2.60;;;12.00;64.90;;;;;;5891654;40;20397;-68
2021/04/17 16:55:03;;;;;;;10.68;3.28;;;12.00;65.20;;;;;;5888244;40;20082;-68
2021/04/17 16:59:10;;;;;;;9.68;3.70;;;12.00;65.30;;;;;;5895181;40;20053;-68
2021/04/17 17:03:14;;;;;;;6.30;2.78;;;12.00;65.20;;;;;;5896786;40;20045;-68
2021/04/17 17:07:19;;;;;;;6.68;3.78;;;11.90;65.00;;;;;;5892006;40;20234;-68
2021/04/17 17:11:23;;;;;;;7.15;2.70;;;11.80;64.80;;;;;;5888816;40;20120;-68
2021/04/17 17:15:27;;;;;;;6.43;2.50;;;11.80;64.90;;;;;;5881236;40;20051;-68
2021/04/17 17:19:51;;;;;;;7.47;2.60;;;11.90;64.90;;;;;;5872324;40;20300;-68
2021/04/17 17:23:58;;;;;;;7.22;3.10;;;11.80;64.80;;;;;;5871290;40;20300;-70
2021/04/17 17:28:02;;;;;;;7.15;3.03;;;11.70;64.90;;;;;;5872850;40;20465;-67
2021/04/17 17:32:07;;;;;;;6.32;3.65;;;11.70;64.60;;;;;;5875123;40;20054;-68
2021/04/17 17:36:12;;;;;;;9.32;4.72;;;11.70;64.50;;;;;;5872809;40;20052;-68
2021/04/17 17:40:17;;;;;;;7.60;4.65;;;11.60;64.70;;;;;;5863286;40;20062;-68
2021/04/17 17:44:23;;;;;;;10.07;3.60;;;11.60;64.60;;;;;;5871473;40;20046;-68
2021/04/17 17:48:30;;;;;;;6.65;3.33;;;11.50;64.70;;;;;;5865943;40;20368;-67
2021/04/17 17:52:37;;;;;;;8.52;3.75;;;11.50;64.80;;;;;;5871876;40;20098;-68
2021/04/17 17:56:42;;;;;;;8.95;4.60;;;11.50;65.00;;;;;;5866519;40;20140;-69
2021/04/17 18:00:51;;;;;;;8.10;4.18;;;11.40;64.90;;;;;;5881830;40;20057;-68
2021/04/17 18:04:55;;;;;;;10.70;3.50;;;11.40;65.10;;;;;;5867416;40;20413;-68
2021/04/17 18:09:00;;;;;;;8.23;4.15;;;11.40;65.60;;;;;;5871621;40;20046;-68
2021/04/17 18:13:06;;;;;;;16.33;6.00;;;11.40;66.30;;;;;;5869022;40;20057;-68
2021/04/17 18:17:10;;;;;;;15.63;7.10;;;11.40;66.90;;;;;;5892973;40;20081;-67
2021/04/17 18:21:17;;;;;;;12.57;5.80;;;11.30;67.40;;;;;;5888487;40;20112;-68
2021/04/17 18:25:23;;;;;;;9.55;6.13;;;11.20;67.30;;;;;;5889212;40;20068;-68
2021/04/17 18:29:31;;;;;;;10.80;4.72;;;11.20;67.60;;;;;;5879336;40;20072;-68
2021/04/17 18:33:39;;;;;;;14.98;7.40;;;11.10;67.80;;;;;;5891454;40;20060;-68
2021/04/17 18:37:44;;;;;;;21.23;8.98;;;11.00;67.90;;;;;;5882140;40;20618;-68
2021/04/17 18:41:48;;;;;;;24.88;13.60;;;10.90;68.10;;;;;;5884669;40;20057;-68
2021/04/17 18:45:52;;;;;;;18.13;11.00;;;10.80;68.10;;;;;;5884205;40;20081;-69
2021/04/17 18:49:57;;;;;;;45.90;23.48;;;10.70;68.10;;;;;;5883320;40;20147;-70
2021/04/17 18:54:03;;;;;;;15.45;6.18;;;10.70;68.20;;;;;;5873637;40;20034;-70
2021/04/17 18:58:08;;;;;;;13.23;7.28;;;10.60;68.40;;;;;;5880850;40;20053;-70
2021/04/17 19:02:15;;;;;;;8.38;3.67;;;10.40;68.90;;;;;;5874183;40;20203;-70
2021/04/17 19:06:24;;;;;;;6.65;4.10;;;10.20;69.00;;;;;;5882054;40;20058;-70
2021/04/17 19:10:30;;;;;;;8.93;2.58;;;10.10;69.10;;;;;;5880980;40;20058;-69
2021/04/17 19:14:34;;;;;;;6.18;2.97;;;10.00;69.20;;;;;;5877861;40;20052;-69
2021/04/17 19:18:38;;;;;;;7.32;2.75;;;10.00;69.20;;;;;;5887736;40;21058;-70
2021/04/17 19:22:43;;;;;;;5.47;2.33;;;9.90;69.70;;;;;;5889326;40;20076;-70
2021/04/17 19:26:49;;;;;;;8.95;2.35;;;9.80;69.90;;;;;;5878319;40;20085;-70
2021/04/17 19:30:55;;;;;;;7.35;2.38;;;9.70;70.40;;;;;;5884978;40;20044;-70
2021/04/17 19:34:59;;;;;;;6.88;2.40;;;9.60;70.60;;;;;;5884104;40;20053;-70
2021/04/17 19:39:04;;;;;;;9.20;2.20;;;9.50;70.30;;;;;;5877463;40;20060;-70
2021/04/17 19:43:08;;;;;;;7.97;2.58;;;9.50;70.30;;;;;;5893391;40;20049;-71
2021/04/17 19:47:13;;;;;;;7.05;2.50;;;9.50;70.40;;;;;;5886509;40;20886;-70
2021/04/17 19:51:18;;;;;;;45.53;23.02;;;10.60;70.90;;;;;;5884279;40;20064;-69
2021/04/17 19:55:25;;;;;;;8.52;3.22;;;9.40;70.60;;;;;;5889912;40;20046;-70
2021/04/17 19:59:30;;;;;;;9.30;3.40;;;9.40;70.70;;;;;;5885231;40;20068;-71
2021/04/17 20:03:36;;;;;;;6.95;2.17;;;9.30;71.00;;;;;;5890049;40;20034;-71
2021/04/17 20:07:42;;;;;;;5.18;1.83;;;9.20;71.30;;;;;;5896926;40;20097;-70
2021/04/17 20:11:48;;;;;;;5.22;2.40;;;9.10;71.80;;;;;;5892231;40;20725;-71
2021/04/17 20:15:53;;;;;;;6.68;2.50;;;9.10;72.10;;;;;;5891897;40;20060;-70
2021/04/17 20:19:54;;;;;;;7.35;2.67;;;9.00;72.40;;;;;;5874753;40;20140;-70
2021/04/17 20:23:59;;;;;;;5.32;2.50;;;8.90;73.20;;;;;;5882010;40;20073;-70
2021/04/17 20:28:03;;;;;;;7.18;2.70;;;8.90;72.90;;;;;;5888655;40;20049;-70
2021/04/17 20:32:07;;;;;;;7.15;2.30;;;8.90;73.60;;;;;;5875148;40;21425;-70
2021/04/17 20:36:12;;;;;;;5.38;2.13;;;8.80;73.80;;;;;;5877909;40;20223;-70
2021/04/17 20:40:16;;;;;;;6.78;2.95;;;8.70;74.60;;;;;;5883245;40;20419;-70
2021/04/17 20:44:20;;;;;;;9.63;3.20;;;8.70;74.80;;;;;;5890772;40;20050;-69
2021/04/17 20:48:26;;;;;;;10.10;2.67;;;8.70;75.00;;;;;;5881601;40;20066;-70
2021/04/17 20:52:31;;;;;;;7.63;2.50;;;8.60;74.80;;;;;;5897226;40;20057;-69
2021/04/17 20:56:47;;;;;;;7.50;2.53;;;8.60;75.10;;;;;;5886320;40;20056;-70
2021/04/17 21:00:51;;;;;;;7.93;2.72;;;8.60;75.00;;;;;;5884811;40;20061;-70
2021/04/17 21:05:02;;;;;;;6.30;2.20;;;8.50;75.10;;;;;;5886605;40;21891;-70
2021/04/17 21:09:08;;;;;;;8.68;2.60;;;8.60;75.20;;;;;;5878635;40;20053;-69
2021/04/17 21:13:15;;;;;;;5.65;2.75;;;8.50;74.90;;;;;;5884728;40;20069;-70
2021/04/17 21:17:21;;;;;;;9.02;2.50;;;8.50;75.00;;;;;;5881903;40;20042;-70
2021/04/17 21:21:26;;;;;;;5.55;2.42;;;8.50;75.70;;;;;;5882800;40;20413;-69
2021/04/17 21:25:30;;;;;;;7.07;2.50;;;8.50;75.60;;;;;;5883394;40;21478;-70
2021/04/17 21:29:37;;;;;;;8.82;3.00;;;8.50;75.90;;;;;;5879523;40;20065;-70
2021/04/17 21:33:42;;;;;;;8.15;2.30;;;8.50;75.80;;;;;;5888357;40;20450;-70
2021/04/17 21:37:49;;;;;;;9.48;2.80;;;8.50;75.70;;;;;;5884069;40;21572;-70
2021/04/17 21:41:53;;;;;;;11.10;2.85;;;8.50;75.60;;;;;;5882610;40;20057;-70
2021/04/17 21:46:02;;;;;;;10.15;3.67;;;8.50;75.00;;;;;;5882710;40;20424;-69
2021/04/17 21:50:07;;;;;;;9.60;3.17;;;8.50;74.10;;;;;;5878523;40;20094;-67